sensor_id;sensor_type;location;lat;lon;timestamp;P1;durP1;ratioP1;P2;durP2;ratioP2
61553;SDS011;47425;51.976;5.326;2022-10-31T09:02:37;4.15;;;3.30;;
61553;SDS011;47425;51.976;5.326;2022-10-31T09:05:04;4.25;;;3.45;;
61553;SDS011;47425;51.976;5.326;2022-10-31T09:07:30;3.40;;;3.10;;
61553;SDS011;47425;51.976;5.326;2022-10-31T09:09:57;4.55;;;3.38;;
61553;SDS011;47425;51.976;5.326;2022-10-31T09:12:24;4.10;;;3.30;;
61553;SDS011;47425;51.976;5.326;2022-10-31T09:15:08;3.83;;;3.20;;
61553;SDS011;47425;51.976;5.326;2022-10-31T09:17:38;5.22;;;3.22;;
61553;SDS011;47425;51.976;5.326;2022-10-31T09:20:43;5.25;;;3.38;;
61553;SDS011;47425;51.976;5.326;2022-10-31T09:23:12;4.90;;;2.97;;
61553;SDS011;47425;51.976;5.326;2022-10-31T09:25:39;3.75;;;2.88;;
61553;SDS011;47425;51.976;5.326;2022-10-31T09:28:24;3.75;;;3.13;;
61553;SDS011;47425;51.976;5.326;2022-10-31T09:30:51;4.95;;;3.28;;
61553;SDS011;47425;51.976;5.326;2022-10-31T09:36:28;4.45;;;3.03;;
61553;SDS011;47425;51.976;5.326;2022-10-31T09:38:55;4.05;;;3.30;;
61553;SDS011;47425;51.976;5.326;2022-10-31T09:47:00;4.90;;;3.53;;
61553;SDS011;47425;51.976;5.326;2022-10-31T09:52:23;4.85;;;3.42;;
61553;SDS011;47425;51.976;5.326;2022-10-31T09:55:00;2.90;;;2.47;;
61553;SDS011;47425;51.976;5.326;2022-10-31T09:57:35;4.38;;;3.13;;
61553;SDS011;47425;51.976;5.326;2022-10-31T10:00:04;4.80;;;2.80;;
61553;SDS011;47425;51.976;5.326;2022-10-31T10:05:19;3.10;;;2.80;;
61553;SDS011;47425;51.976;5.326;2022-10-31T10:10:57;2.85;;;2.60;;
61553;SDS011;47425;51.976;5.326;2022-10-31T10:17:00;3.53;;;2.60;;
61553;SDS011;47425;51.976;5.326;2022-10-31T10:25:20;2.75;;;2.50;;
61553;SDS011;47425;51.976;5.326;2022-10-31T10:30:31;3.08;;;2.72;;
61553;SDS011;47425;51.976;5.326;2022-10-31T10:33:20;2.90;;;2.60;;
61553;SDS011;47425;51.976;5.326;2022-10-31T10:35:59;2.90;;;2.53;;
61553;SDS011;47425;51.976;5.326;2022-10-31T10:41:07;3.03;;;2.58;;
61553;SDS011;47425;51.976;5.326;2022-10-31T10:43:40;3.47;;;2.45;;
61553;SDS011;47425;51.976;5.326;2022-10-31T10:54:39;2.60;;;2.35;;
61553;SDS011;47425;51.976;5.326;2022-10-31T10:57:36;3.60;;;2.78;;
61553;SDS011;47425;51.976;5.326;2022-10-31T11:00:21;2.95;;;2.50;;
61553;SDS011;47425;51.976;5.326;2022-10-31T11:02:49;3.88;;;2.92;;
61553;SDS011;47425;51.976;5.326;2022-10-31T11:08:29;2.60;;;2.35;;
61553;SDS011;47425;51.976;5.326;2022-10-31T11:11:04;3.08;;;2.53;;
61553;SDS011;47425;51.976;5.326;2022-10-31T11:13:33;2.65;;;2.42;;
61553;SDS011;47425;51.976;5.326;2022-10-31T11:16:07;3.00;;;2.50;;
61553;SDS011;47425;51.976;5.326;2022-10-31T11:18:42;3.10;;;2.60;;
61553;SDS011;47425;51.976;5.326;2022-10-31T11:21:21;3.83;;;2.90;;
61553;SDS011;47425;51.976;5.326;2022-10-31T11:26:37;4.70;;;2.85;;
61553;SDS011;47425;51.976;5.326;2022-10-31T11:29:04;4.88;;;3.15;;
61553;SDS011;47425;51.976;5.326;2022-10-31T11:31:34;3.35;;;2.85;;
61553;SDS011;47425;51.976;5.326;2022-10-31T11:34:02;4.57;;;2.80;;
61553;SDS011;47425;51.976;5.326;2022-10-31T11:36:31;3.80;;;2.75;;
61553;SDS011;47425;51.976;5.326;2022-10-31T11:39:01;3.58;;;2.72;;
61553;SDS011;47425;51.976;5.326;2022-10-31T11:44:00;4.43;;;2.90;;
61553;SDS011;47425;51.976;5.326;2022-10-31T11:46:33;3.50;;;2.65;;
61553;SDS011;47425;51.976;5.326;2022-10-31T11:49:02;3.03;;;2.72;;
61553;SDS011;47425;51.976;5.326;2022-10-31T11:51:31;5.55;;;2.70;;
61553;SDS011;47425;51.976;5.326;2022-10-31T11:54:20;4.43;;;2.60;;
61553;SDS011;47425;51.976;5.326;2022-10-31T11:56:51;4.05;;;2.53;;
61553;SDS011;47425;51.976;5.326;2022-10-31T11:59:26;3.45;;;2.65;;
61553;SDS011;47425;51.976;5.326;2022-10-31T12:01:55;2.60;;;2.40;;
61553;SDS011;47425;51.976;5.326;2022-10-31T12:04:24;4.75;;;2.92;;
61553;SDS011;47425;51.976;5.326;2022-10-31T12:07:02;3.47;;;2.50;;
61553;SDS011;47425;51.976;5.326;2022-10-31T12:09:30;4.57;;;2.80;;
61553;SDS011;47425;51.976;5.326;2022-10-31T12:15:30;3.47;;;2.33;;
61553;SDS011;47425;51.976;5.326;2022-10-31T12:18:45;3.50;;;2.35;;
61553;SDS011;47425;51.976;5.326;2022-10-31T12:21:00;3.58;;;2.55;;
61553;SDS011;47425;51.976;5.326;2022-10-31T12:24:13;3.55;;;2.85;;
61553;SDS011;47425;51.976;5.326;2022-10-31T12:27:15;3.17;;;2.30;;
61553;SDS011;47425;51.976;5.326;2022-10-31T12:30:15;3.45;;;2.60;;
61553;SDS011;47425;51.976;5.326;2022-10-31T12:38:18;3.40;;;2.50;;
61553;SDS011;47425;51.976;5.326;2022-10-31T12:52:05;3.33;;;2.38;;
61553;SDS011;47425;51.976;5.326;2022-10-31T12:54:43;3.80;;;2.50;;
61553;SDS011;47425;51.976;5.326;2022-10-31T12:59:57;3.53;;;2.75;;
61553;SDS011;47425;51.976;5.326;2022-10-31T13:08:06;3.45;;;2.28;;
61553;SDS011;47425;51.976;5.326;2022-10-31T13:13:37;5.07;;;3.47;;
61553;SDS011;47425;51.976;5.326;2022-10-31T13:21:17;4.60;;;2.95;;
61553;SDS011;47425;51.976;5.326;2022-10-31T13:23:49;4.00;;;2.75;;
61553;SDS011;47425;51.976;5.326;2022-10-31T13:29:18;3.50;;;2.53;;
61553;SDS011;47425;51.976;5.326;2022-10-31T13:34:23;3.45;;;2.70;;
61553;SDS011;47425;51.976;5.326;2022-10-31T13:44:35;3.15;;;2.85;;
61553;SDS011;47425;51.976;5.326;2022-10-31T13:47:18;3.40;;;2.47;;
61553;SDS011;47425;51.976;5.326;2022-10-31T13:49:46;3.25;;;2.55;;
61553;SDS011;47425;51.976;5.326;2022-10-31T13:52:14;3.78;;;2.80;;
61553;SDS011;47425;51.976;5.326;2022-10-31T13:54:45;3.67;;;3.00;;
61553;SDS011;47425;51.976;5.326;2022-10-31T13:57:31;2.70;;;2.50;;
61553;SDS011;47425;51.976;5.326;2022-10-31T14:00:06;3.63;;;2.95;;
61553;SDS011;47425;51.976;5.326;2022-10-31T14:02:44;3.05;;;2.65;;
61553;SDS011;47425;51.976;5.326;2022-10-31T14:05:19;2.67;;;2.47;;
61553;SDS011;47425;51.976;5.326;2022-10-31T14:07:56;2.70;;;2.50;;
61553;SDS011;47425;51.976;5.326;2022-10-31T14:13:06;3.30;;;2.83;;
61553;SDS011;47425;51.976;5.326;2022-10-31T14:15:38;2.92;;;2.40;;
61553;SDS011;47425;51.976;5.326;2022-10-31T14:18:46;2.83;;;2.53;;
61553;SDS011;47425;51.976;5.326;2022-10-31T14:23:53;2.83;;;2.55;;
61553;SDS011;47425;51.976;5.326;2022-10-31T14:28:49;3.35;;;3.05;;
61553;SDS011;47425;51.976;5.326;2022-10-31T14:36:49;3.50;;;2.88;;
61553;SDS011;47425;51.976;5.326;2022-10-31T14:39:40;3.55;;;2.95;;
61553;SDS011;47425;51.976;5.326;2022-10-31T14:50:56;2.92;;;2.63;;
61553;SDS011;47425;51.976;5.326;2022-10-31T14:53:33;3.35;;;3.03;;
61553;SDS011;47425;51.976;5.326;2022-10-31T14:56:01;3.63;;;2.63;;
61553;SDS011;47425;51.976;5.326;2022-10-31T15:01:00;3.20;;;2.85;;
61553;SDS011;47425;51.976;5.326;2022-10-31T15:03:33;3.60;;;2.97;;
61553;SDS011;47425;51.976;5.326;2022-10-31T15:06:14;3.42;;;2.97;;
61553;SDS011;47425;51.976;5.326;2022-10-31T15:08:45;4.15;;;2.97;;
61553;SDS011;47425;51.976;5.326;2022-10-31T15:11:11;3.72;;;3.10;;
61553;SDS011;47425;51.976;5.326;2022-10-31T15:13:42;3.30;;;3.00;;
61553;SDS011;47425;51.976;5.326;2022-10-31T15:16:15;4.20;;;3.10;;
61553;SDS011;47425;51.976;5.326;2022-10-31T15:21:29;3.60;;;2.85;;
61553;SDS011;47425;51.976;5.326;2022-10-31T15:23:58;3.90;;;3.10;;
61553;SDS011;47425;51.976;5.326;2022-10-31T15:26:38;3.13;;;2.80;;
61553;SDS011;47425;51.976;5.326;2022-10-31T15:29:17;4.30;;;2.97;;
61553;SDS011;47425;51.976;5.326;2022-10-31T15:31:49;4.85;;;2.70;;
61553;SDS011;47425;51.976;5.326;2022-10-31T15:34:29;3.72;;;3.03;;
61553;SDS011;47425;51.976;5.326;2022-10-31T15:37:07;4.13;;;3.20;;
61553;SDS011;47425;51.976;5.326;2022-10-31T15:39:41;3.33;;;3.03;;
61553;SDS011;47425;51.976;5.326;2022-10-31T15:42:18;4.03;;;2.92;;
61553;SDS011;47425;51.976;5.326;2022-10-31T15:45:15;4.07;;;3.10;;
61553;SDS011;47425;51.976;5.326;2022-10-31T15:47:45;3.00;;;2.70;;
61553;SDS011;47425;51.976;5.326;2022-10-31T15:51:00;4.88;;;2.80;;
61553;SDS011;47425;51.976;5.326;2022-10-31T15:53:15;4.00;;;3.33;;
61553;SDS011;47425;51.976;5.326;2022-10-31T15:55:48;3.28;;;2.90;;
61553;SDS011;47425;51.976;5.326;2022-10-31T15:58:21;3.15;;;2.58;;
61553;SDS011;47425;51.976;5.326;2022-10-31T16:00:57;3.72;;;3.20;;
61553;SDS011;47425;51.976;5.326;2022-10-31T16:03:27;3.35;;;2.75;;
61553;SDS011;47425;51.976;5.326;2022-10-31T16:05:56;4.43;;;3.42;;
61553;SDS011;47425;51.976;5.326;2022-10-31T16:11:02;3.45;;;3.00;;
61553;SDS011;47425;51.976;5.326;2022-10-31T16:13:40;4.47;;;3.13;;
61553;SDS011;47425;51.976;5.326;2022-10-31T16:16:22;4.13;;;3.03;;
61553;SDS011;47425;51.976;5.326;2022-10-31T16:18:48;3.70;;;3.10;;
61553;SDS011;47425;51.976;5.326;2022-10-31T16:21:22;3.40;;;2.90;;
61553;SDS011;47425;51.976;5.326;2022-10-31T16:23:51;4.65;;;3.20;;
61553;SDS011;47425;51.976;5.326;2022-10-31T16:26:23;3.25;;;2.95;;
61553;SDS011;47425;51.976;5.326;2022-10-31T16:28:53;3.33;;;2.97;;
61553;SDS011;47425;51.976;5.326;2022-10-31T16:31:28;3.30;;;3.00;;
61553;SDS011;47425;51.976;5.326;2022-10-31T16:36:41;3.85;;;3.20;;
61553;SDS011;47425;51.976;5.326;2022-10-31T16:39:07;5.93;;;3.42;;
61553;SDS011;47425;51.976;5.326;2022-10-31T16:41:40;5.00;;;3.25;;
61553;SDS011;47425;51.976;5.326;2022-10-31T16:44:15;6.35;;;3.35;;
61553;SDS011;47425;51.976;5.326;2022-10-31T16:49:41;4.13;;;3.42;;
61553;SDS011;47425;51.976;5.326;2022-10-31T16:52:08;4.88;;;3.70;;
61553;SDS011;47425;51.976;5.326;2022-10-31T16:54:33;5.10;;;3.60;;
61553;SDS011;47425;51.976;5.326;2022-10-31T16:57:00;3.95;;;3.22;;
61553;SDS011;47425;51.976;5.326;2022-10-31T17:01:54;7.05;;;3.85;;
61553;SDS011;47425;51.976;5.326;2022-10-31T17:04:21;8.70;;;3.97;;
61553;SDS011;47425;51.976;5.326;2022-10-31T17:06:47;8.88;;;4.60;;
61553;SDS011;47425;51.976;5.326;2022-10-31T17:09:13;10.77;;;5.25;;
61553;SDS011;47425;51.976;5.326;2022-10-31T17:11:40;6.97;;;4.97;;
61553;SDS011;47425;51.976;5.326;2022-10-31T17:14:12;8.73;;;5.80;;
61553;SDS011;47425;51.976;5.326;2022-10-31T17:16:38;10.18;;;5.55;;
61553;SDS011;47425;51.976;5.326;2022-10-31T17:19:03;7.82;;;5.93;;
61553;SDS011;47425;51.976;5.326;2022-10-31T17:21:30;9.18;;;6.35;;
61553;SDS011;47425;51.976;5.326;2022-10-31T17:23:56;11.68;;;6.68;;
61553;SDS011;47425;51.976;5.326;2022-10-31T17:26:21;9.07;;;6.70;;
61553;SDS011;47425;51.976;5.326;2022-10-31T17:28:47;11.73;;;7.00;;
61553;SDS011;47425;51.976;5.326;2022-10-31T17:31:21;10.25;;;6.70;;
61553;SDS011;47425;51.976;5.326;2022-10-31T17:33:53;9.70;;;6.93;;
61553;SDS011;47425;51.976;5.326;2022-10-31T17:36:19;13.85;;;6.32;;
61553;SDS011;47425;51.976;5.326;2022-10-31T17:38:46;10.43;;;7.13;;
61553;SDS011;47425;51.976;5.326;2022-10-31T17:41:11;10.98;;;6.75;;
61553;SDS011;47425;51.976;5.326;2022-10-31T17:43:37;10.27;;;6.00;;
61553;SDS011;47425;51.976;5.326;2022-10-31T17:46:02;11.13;;;6.40;;
61553;SDS011;47425;51.976;5.326;2022-10-31T17:48:29;10.27;;;5.45;;
61553;SDS011;47425;51.976;5.326;2022-10-31T17:50:58;12.18;;;6.40;;
61553;SDS011;47425;51.976;5.326;2022-10-31T17:53:24;9.75;;;6.40;;
61553;SDS011;47425;51.976;5.326;2022-10-31T17:55:50;10.05;;;6.65;;
61553;SDS011;47425;51.976;5.326;2022-10-31T17:58:16;10.15;;;6.45;;
61553;SDS011;47425;51.976;5.326;2022-10-31T18:00:41;8.25;;;5.75;;
61553;SDS011;47425;51.976;5.326;2022-10-31T18:03:07;12.07;;;6.18;;
61553;SDS011;47425;51.976;5.326;2022-10-31T18:05:33;9.77;;;6.03;;
61553;SDS011;47425;51.976;5.326;2022-10-31T18:07:59;11.88;;;6.38;;
61553;SDS011;47425;51.976;5.326;2022-10-31T18:10:26;11.93;;;6.22;;
61553;SDS011;47425;51.976;5.326;2022-10-31T18:12:51;10.18;;;5.63;;
61553;SDS011;47425;51.976;5.326;2022-10-31T18:15:17;10.75;;;6.18;;
61553;SDS011;47425;51.976;5.326;2022-10-31T18:17:43;7.45;;;5.68;;
61553;SDS011;47425;51.976;5.326;2022-10-31T18:20:08;8.63;;;5.57;;
61553;SDS011;47425;51.976;5.326;2022-10-31T18:22:35;6.65;;;5.28;;
61553;SDS011;47425;51.976;5.326;2022-10-31T18:25:01;8.10;;;5.60;;
61553;SDS011;47425;51.976;5.326;2022-10-31T18:27:27;11.15;;;5.95;;
61553;SDS011;47425;51.976;5.326;2022-10-31T18:29:54;12.30;;;5.55;;
61553;SDS011;47425;51.976;5.326;2022-10-31T18:32:19;9.30;;;5.45;;
61553;SDS011;47425;51.976;5.326;2022-10-31T18:34:44;10.52;;;5.70;;
61553;SDS011;47425;51.976;5.326;2022-10-31T18:37:10;9.73;;;5.93;;
61553;SDS011;47425;51.976;5.326;2022-10-31T18:39:36;11.80;;;5.88;;
61553;SDS011;47425;51.976;5.326;2022-10-31T18:42:02;7.50;;;5.28;;
61553;SDS011;47425;51.976;5.326;2022-10-31T18:44:27;10.50;;;5.65;;
61553;SDS011;47425;51.976;5.326;2022-10-31T18:46:54;9.80;;;5.75;;
61553;SDS011;47425;51.976;5.326;2022-10-31T18:49:19;10.55;;;5.50;;
61553;SDS011;47425;51.976;5.326;2022-10-31T18:51:51;8.45;;;5.57;;
61553;SDS011;47425;51.976;5.326;2022-10-31T18:54:16;10.05;;;6.18;;
61553;SDS011;47425;51.976;5.326;2022-10-31T18:56:43;9.57;;;5.35;;
61553;SDS011;47425;51.976;5.326;2022-10-31T18:59:09;7.80;;;5.57;;
61553;SDS011;47425;51.976;5.326;2022-10-31T19:01:35;8.02;;;5.10;;
61553;SDS011;47425;51.976;5.326;2022-10-31T19:04:01;8.48;;;5.03;;
61553;SDS011;47425;51.976;5.326;2022-10-31T19:06:28;9.80;;;5.40;;
61553;SDS011;47425;51.976;5.326;2022-10-31T19:09:03;8.52;;;5.80;;
61553;SDS011;47425;51.976;5.326;2022-10-31T19:11:30;8.75;;;5.13;;
61553;SDS011;47425;51.976;5.326;2022-10-31T19:13:58;10.25;;;5.40;;
61553;SDS011;47425;51.976;5.326;2022-10-31T19:16:24;11.23;;;5.80;;
61553;SDS011;47425;51.976;5.326;2022-10-31T19:18:54;11.07;;;5.68;;
61553;SDS011;47425;51.976;5.326;2022-10-31T19:21:21;7.53;;;5.10;;
61553;SDS011;47425;51.976;5.326;2022-10-31T19:23:50;6.63;;;4.60;;
61553;SDS011;47425;51.976;5.326;2022-10-31T19:26:16;12.07;;;5.65;;
61553;SDS011;47425;51.976;5.326;2022-10-31T19:28:42;8.57;;;5.18;;
61553;SDS011;47425;51.976;5.326;2022-10-31T19:31:09;9.88;;;5.00;;
61553;SDS011;47425;51.976;5.326;2022-10-31T19:33:36;11.48;;;5.32;;
61553;SDS011;47425;51.976;5.326;2022-10-31T19:36:05;8.73;;;5.15;;
61553;SDS011;47425;51.976;5.326;2022-10-31T19:38:39;9.10;;;4.80;;
61553;SDS011;47425;51.976;5.326;2022-10-31T19:41:08;9.27;;;4.43;;
61553;SDS011;47425;51.976;5.326;2022-10-31T19:43:36;10.95;;;5.32;;
61553;SDS011;47425;51.976;5.326;2022-10-31T19:46:03;8.40;;;4.78;;
61553;SDS011;47425;51.976;5.326;2022-10-31T19:48:30;10.93;;;5.20;;
61553;SDS011;47425;51.976;5.326;2022-10-31T19:51:00;7.90;;;5.25;;
61553;SDS011;47425;51.976;5.326;2022-10-31T19:53:29;7.35;;;4.75;;
61553;SDS011;47425;51.976;5.326;2022-10-31T19:55:55;7.57;;;4.70;;
61553;SDS011;47425;51.976;5.326;2022-10-31T19:58:22;8.40;;;4.40;;
61553;SDS011;47425;51.976;5.326;2022-10-31T20:00:48;9.13;;;4.80;;
61553;SDS011;47425;51.976;5.326;2022-10-31T20:03:13;9.45;;;4.93;;
61553;SDS011;47425;51.976;5.326;2022-10-31T20:05:39;7.45;;;4.50;;
61553;SDS011;47425;51.976;5.326;2022-10-31T20:08:06;10.13;;;4.80;;
61553;SDS011;47425;51.976;5.326;2022-10-31T20:10:31;9.00;;;4.82;;
61553;SDS011;47425;51.976;5.326;2022-10-31T20:12:57;6.82;;;4.95;;
61553;SDS011;47425;51.976;5.326;2022-10-31T20:15:23;6.80;;;4.60;;
61553;SDS011;47425;51.976;5.326;2022-10-31T20:17:49;8.07;;;4.57;;
61553;SDS011;47425;51.976;5.326;2022-10-31T20:20:14;8.05;;;4.30;;
61553;SDS011;47425;51.976;5.326;2022-10-31T20:22:40;7.25;;;4.20;;
61553;SDS011;47425;51.976;5.326;2022-10-31T20:25:25;6.35;;;4.30;;
61553;SDS011;47425;51.976;5.326;2022-10-31T20:27:51;6.78;;;4.47;;
61553;SDS011;47425;51.976;5.326;2022-10-31T20:30:16;9.65;;;4.38;;
61553;SDS011;47425;51.976;5.326;2022-10-31T20:32:42;8.25;;;4.43;;
61553;SDS011;47425;51.976;5.326;2022-10-31T20:35:08;11.48;;;4.50;;
61553;SDS011;47425;51.976;5.326;2022-10-31T20:37:33;10.35;;;4.80;;
61553;SDS011;47425;51.976;5.326;2022-10-31T20:39:59;7.15;;;4.45;;
61553;SDS011;47425;51.976;5.326;2022-10-31T20:42:26;8.50;;;4.63;;
61553;SDS011;47425;51.976;5.326;2022-10-31T20:44:52;6.57;;;4.53;;
61553;SDS011;47425;51.976;5.326;2022-10-31T20:47:17;6.97;;;4.25;;
61553;SDS011;47425;51.976;5.326;2022-10-31T20:49:44;5.95;;;3.78;;
61553;SDS011;47425;51.976;5.326;2022-10-31T20:52:09;10.15;;;4.18;;
61553;SDS011;47425;51.976;5.326;2022-10-31T20:54:34;6.70;;;4.50;;
61553;SDS011;47425;51.976;5.326;2022-10-31T20:57:00;4.90;;;4.15;;
61553;SDS011;47425;51.976;5.326;2022-10-31T20:59:26;10.05;;;4.70;;
61553;SDS011;47425;51.976;5.326;2022-10-31T21:01:52;8.45;;;4.60;;
61553;SDS011;47425;51.976;5.326;2022-10-31T21:04:17;10.43;;;4.88;;
61553;SDS011;47425;51.976;5.326;2022-10-31T21:06:44;9.02;;;4.60;;
61553;SDS011;47425;51.976;5.326;2022-10-31T21:09:09;9.98;;;4.72;;
61553;SDS011;47425;51.976;5.326;2022-10-31T21:11:35;6.85;;;4.45;;
61553;SDS011;47425;51.976;5.326;2022-10-31T21:14:00;8.85;;;4.45;;
61553;SDS011;47425;51.976;5.326;2022-10-31T21:16:28;7.38;;;4.50;;
61553;SDS011;47425;51.976;5.326;2022-10-31T21:18:55;8.43;;;4.82;;
61553;SDS011;47425;51.976;5.326;2022-10-31T21:21:22;7.45;;;4.57;;
61553;SDS011;47425;51.976;5.326;2022-10-31T21:23:54;8.30;;;3.90;;
61553;SDS011;47425;51.976;5.326;2022-10-31T21:26:23;7.47;;;4.30;;
61553;SDS011;47425;51.976;5.326;2022-10-31T21:28:51;7.00;;;4.32;;
61553;SDS011;47425;51.976;5.326;2022-10-31T21:31:19;6.40;;;4.28;;
61553;SDS011;47425;51.976;5.326;2022-10-31T21:33:46;9.40;;;4.20;;
61553;SDS011;47425;51.976;5.326;2022-10-31T21:36:12;7.38;;;3.88;;
61553;SDS011;47425;51.976;5.326;2022-10-31T21:38:38;7.13;;;4.28;;
61553;SDS011;47425;51.976;5.326;2022-10-31T21:41:07;7.82;;;4.38;;
61553;SDS011;47425;51.976;5.326;2022-10-31T21:43:36;6.57;;;4.30;;
61553;SDS011;47425;51.976;5.326;2022-10-31T21:46:04;7.25;;;3.90;;
61553;SDS011;47425;51.976;5.326;2022-10-31T21:48:30;7.53;;;4.13;;
61553;SDS011;47425;51.976;5.326;2022-10-31T21:51:04;6.27;;;4.13;;
61553;SDS011;47425;51.976;5.326;2022-10-31T21:53:31;6.10;;;4.07;;
61553;SDS011;47425;51.976;5.326;2022-10-31T21:56:16;7.35;;;4.38;;
61553;SDS011;47425;51.976;5.326;2022-10-31T21:58:42;5.68;;;4.10;;
61553;SDS011;47425;51.976;5.326;2022-10-31T22:01:08;7.97;;;4.60;;
61553;SDS011;47425;51.976;5.326;2022-10-31T22:03:37;6.53;;;3.85;;
61553;SDS011;47425;51.976;5.326;2022-10-31T22:06:04;5.85;;;4.00;;
61553;SDS011;47425;51.976;5.326;2022-10-31T22:08:31;6.25;;;4.25;;
61553;SDS011;47425;51.976;5.326;2022-10-31T22:11:04;6.78;;;4.10;;
61553;SDS011;47425;51.976;5.326;2022-10-31T22:13:35;5.85;;;3.92;;
61553;SDS011;47425;51.976;5.326;2022-10-31T22:16:05;8.70;;;3.85;;
61553;SDS011;47425;51.976;5.326;2022-10-31T22:18:32;6.57;;;3.95;;
61553;SDS011;47425;51.976;5.326;2022-10-31T22:21:01;7.85;;;4.05;;
61553;SDS011;47425;51.976;5.326;2022-10-31T22:23:31;6.90;;;4.05;;
61553;SDS011;47425;51.976;5.326;2022-10-31T22:26:08;6.10;;;3.70;;
61553;SDS011;47425;51.976;5.326;2022-10-31T22:28:43;5.57;;;3.97;;
